createdAt,value
2022-12-23T00:01:13.413Z,99315.58
2022-12-23T00:03:40.510Z,99318.80
2022-12-23T00:06:13.572Z,99315.40
2022-12-23T00:08:41.749Z,99319.78
2022-12-23T00:11:15.991Z,99316.80
2022-12-23T00:14:02.983Z,99287.94
2022-12-23T00:16:30.554Z,99309.80
2022-12-23T00:18:57.740Z,99310.23
2022-12-23T00:21:24.654Z,99310.77
2022-12-23T00:23:51.747Z,99309.95
2022-12-23T00:26:25.716Z,99307.83
2022-12-23T00:28:56.314Z,99310.12
2022-12-23T00:31:24.648Z,99310.08
2022-12-23T00:33:53.734Z,99313.30
2022-12-23T00:36:29.892Z,99310.02
2022-12-23T00:39:17.250Z,99308.55
2022-12-23T00:42:03.806Z,99300.00
2022-12-23T00:44:30.962Z,99300.77
2022-12-23T00:46:57.887Z,99296.83
2022-12-23T00:49:42.851Z,99297.34
2022-12-23T00:52:15.244Z,99303.52
2022-12-23T00:54:42.303Z,99305.77
2022-12-23T00:57:09.453Z,99303.02
2022-12-23T00:59:36.390Z,99299.33
2022-12-23T01:02:22.586Z,99298.29
2022-12-23T01:05:07.883Z,99290.50
2022-12-23T01:07:34.747Z,99290.27
2022-12-23T01:10:01.788Z,99263.30
2022-12-23T01:12:29.084Z,99277.58
2022-12-23T01:14:56.187Z,99276.52
2022-12-23T01:17:23.754Z,99273.77
2022-12-23T01:19:51.139Z,99267.31
2022-12-23T01:22:18.249Z,99267.91
2022-12-23T01:24:45.413Z,99268.50
2022-12-23T01:27:12.485Z,99267.64
2022-12-23T01:29:39.499Z,99268.80
2022-12-23T01:32:06.639Z,99270.81
2022-12-23T01:34:37.392Z,99265.77
2022-12-23T01:37:06.576Z,99257.98
2022-12-23T01:39:33.658Z,99249.93
2022-12-23T01:42:19.352Z,99246.88
2022-12-23T01:45:02.543Z,99243.11
2022-12-23T01:47:55.193Z,99238.58
2022-12-23T01:50:34.922Z,99215.60
2022-12-23T01:53:21.357Z,99230.00
2022-12-23T01:55:58.781Z,99226.93
2022-12-23T01:58:31.422Z,99228.60
2022-12-23T02:01:17.921Z,99225.88
2022-12-23T02:03:47.421Z,99214.56
2022-12-23T02:06:45.681Z,99217.66
2022-12-23T02:09:19.623Z,99217.66
2022-12-23T02:12:01.681Z,99214.84
2022-12-23T02:15:08.345Z,99216.66
2022-12-23T02:18:02.465Z,99215.34
2022-12-23T02:21:02.363Z,99213.24
2022-12-23T02:24:00.164Z,99211.25
2022-12-23T02:27:04.411Z,99213.98
2022-12-23T02:29:56.197Z,99207.20
2022-12-23T02:32:39.185Z,99207.73
2022-12-23T02:35:43.340Z,99208.27
2022-12-23T02:38:16.430Z,99206.04
2022-12-23T02:41:08.102Z,99206.91
2022-12-23T02:43:55.680Z,99213.25
2022-12-23T02:46:33.414Z,99213.95
2022-12-23T02:49:12.777Z,99215.10
2022-12-23T02:51:44.133Z,99216.77
2022-12-23T02:54:17.054Z,99211.20
2022-12-23T02:56:49.696Z,99206.10
2022-12-23T02:59:25.251Z,99210.83
2022-12-23T03:01:55.244Z,99213.42
2022-12-23T03:04:23.555Z,99202.95
2022-12-23T03:06:55.387Z,99206.86
2022-12-23T03:09:45.607Z,99210.09
2022-12-23T03:12:53.996Z,99210.08
2022-12-23T03:15:51.583Z,99204.15
2022-12-23T03:18:28.256Z,99196.73
2022-12-23T03:21:20.805Z,99194.48
2022-12-23T03:23:55.946Z,99192.02
2022-12-23T03:26:30.744Z,99195.23
2022-12-23T03:29:43.249Z,99196.58
2022-12-23T03:32:13.868Z,99195.73
2022-12-23T03:34:46.019Z,99192.52
2022-12-23T03:37:15.669Z,99192.80
2022-12-23T03:39:51.928Z,99191.10
2022-12-23T03:42:40.306Z,99189.71
2022-12-23T03:45:38.207Z,99192.08
2022-12-23T03:48:14.812Z,99197.57
2022-12-23T03:50:43.732Z,99194.20
2022-12-23T03:53:17.051Z,99190.11
2022-12-23T03:55:51.082Z,99189.55
2022-12-23T03:58:21.485Z,99188.84
2022-12-23T04:00:58.692Z,99180.88
2022-12-23T04:03:45.236Z,99175.53
2022-12-23T04:06:17.094Z,99174.65
2022-12-23T04:08:46.086Z,99176.21
2022-12-23T04:11:14.008Z,99174.93
2022-12-23T04:13:41.176Z,99173.02
2022-12-23T04:16:08.282Z,99174.24
2022-12-23T04:18:35.186Z,99175.42
2022-12-23T04:21:01.965Z,99170.48
2022-12-23T04:23:28.771Z,99171.83
2022-12-23T04:25:55.707Z,99168.30
2022-12-23T04:28:22.502Z,99162.09
2022-12-23T04:30:49.410Z,99169.70
2022-12-23T04:33:16.310Z,99155.68
2022-12-23T04:35:43.269Z,99158.73
2022-12-23T04:38:10.172Z,99158.36
2022-12-23T04:40:38.189Z,99158.73
2022-12-23T04:43:05.223Z,99154.03
2022-12-23T04:45:32.582Z,99148.77
2022-12-23T04:47:59.416Z,99146.52
2022-12-23T04:50:26.266Z,99142.17
2022-12-23T04:52:53.131Z,99138.75
2022-12-23T04:55:20.268Z,99136.69
2022-12-23T04:57:47.372Z,99135.96
2022-12-23T05:00:15.083Z,99132.74
2022-12-23T05:02:42.111Z,99129.27
2022-12-23T05:05:09.178Z,99126.92
2022-12-23T05:07:36.087Z,99123.42
2022-12-23T05:10:03.427Z,99119.65
2022-12-23T05:12:31.590Z,99119.15
2022-12-23T05:14:58.592Z,99119.44
2022-12-23T05:17:25.621Z,99117.50
2022-12-23T05:19:52.431Z,99117.27
2022-12-23T05:22:19.257Z,99116.62
2022-12-23T05:24:46.533Z,99109.16
2022-12-23T05:27:13.567Z,99123.25
2022-12-23T05:29:40.473Z,99122.66
2022-12-23T05:32:07.650Z,99123.92
2022-12-23T05:34:34.591Z,99120.09
2022-12-23T05:37:01.476Z,99121.96
2022-12-23T05:39:28.460Z,99123.27
2022-12-23T05:41:55.343Z,99124.00
2022-12-23T05:44:22.272Z,99123.48
2022-12-23T05:46:49.344Z,99124.81
2022-12-23T05:49:16.322Z,99122.66
2022-12-23T05:51:43.364Z,99121.89
2022-12-23T05:54:10.231Z,99124.38
2022-12-23T05:56:37.271Z,99126.29
2022-12-23T05:59:04.273Z,99128.48
2022-12-23T06:01:31.047Z,99132.88
2022-12-23T06:03:58.037Z,99137.45
2022-12-23T06:06:25.080Z,99139.33
2022-12-23T06:08:59.120Z,99135.69
2022-12-23T06:11:27.947Z,99137.33
2022-12-23T06:13:56.350Z,99137.95
2022-12-23T06:16:23.904Z,99132.39
2022-12-23T06:18:55.427Z,99134.30
2022-12-23T06:21:22.565Z,99133.48
2022-12-23T06:23:49.476Z,99127.60
2022-12-23T06:26:16.363Z,99129.98
2022-12-23T06:28:43.424Z,99128.96
2022-12-23T06:31:10.513Z,99124.80
2022-12-23T06:33:37.433Z,99124.67
2022-12-23T06:36:05.012Z,99127.45
2022-12-23T06:38:31.811Z,99130.88
2022-12-23T06:40:58.841Z,99132.13
2022-12-23T06:43:25.676Z,99136.99
2022-12-23T06:45:52.709Z,99140.85
2022-12-23T06:48:19.990Z,99139.02
2022-12-23T06:50:47.028Z,99131.91
2022-12-23T06:53:14.711Z,99130.16
2022-12-23T06:55:41.542Z,99133.38
2022-12-23T06:58:08.641Z,99131.67
2022-12-23T07:00:35.723Z,99132.90
2022-12-23T07:03:03.678Z,99134.48
2022-12-23T07:05:36.760Z,99134.34
2022-12-23T07:08:05.664Z,99133.44
2022-12-23T07:10:34.230Z,99132.30
2022-12-23T07:13:01.301Z,99133.11
2022-12-23T07:15:28.326Z,99132.69
2022-12-23T07:17:55.255Z,99135.17
2022-12-23T07:20:22.314Z,99126.35
2022-12-23T07:22:52.630Z,99132.39
2022-12-23T07:25:19.644Z,99125.80
2022-12-23T09:00:26.949Z,99128.09
2022-12-23T09:02:54.834Z,99126.20
2022-12-23T09:05:22.287Z,99119.00
2022-12-23T09:07:49.422Z,99114.07
2022-12-23T09:10:16.372Z,99120.28
2022-12-23T09:12:43.515Z,99122.71
2022-12-23T09:15:10.727Z,99125.20
2022-12-23T09:17:38.525Z,99129.73
2022-12-23T09:20:06.982Z,99129.13
2022-12-23T09:22:34.633Z,99137.13
2022-12-23T09:25:05.321Z,99136.45
2022-12-23T09:27:32.944Z,99133.15
2022-12-23T09:30:00.043Z,99128.61
2022-12-23T09:32:28.158Z,99128.58
2022-12-23T09:34:57.867Z,99125.48
2022-12-23T09:37:25.059Z,99121.70
2022-12-23T09:39:52.005Z,99121.52
2022-12-23T09:42:41.839Z,99126.67
2022-12-23T09:45:27.627Z,99124.68
2022-12-23T09:47:56.303Z,99125.36
2022-12-23T09:50:29.569Z,99126.70
2022-12-23T09:53:13.261Z,99119.50
2022-12-23T09:55:50.644Z,99121.23
2022-12-23T09:58:36.824Z,99123.14
2022-12-23T10:01:13.399Z,99126.63
2022-12-23T10:03:58.617Z,99124.75
2022-12-23T10:06:28.802Z,99122.89
2022-12-23T10:09:02.296Z,99125.88
2022-12-23T10:11:33.846Z,99130.56
2022-12-23T10:14:14.114Z,99130.87
2022-12-23T10:16:45.553Z,99127.56
2022-12-23T10:19:23.175Z,99126.91
2022-12-23T10:21:55.733Z,99130.62
2022-12-23T10:24:26.073Z,99130.94
2022-12-23T10:26:56.084Z,99132.13
2022-12-23T10:29:26.101Z,99119.59
2022-12-23T10:32:14.923Z,99130.15
2022-12-23T10:34:52.141Z,99131.44
2022-12-23T10:37:36.384Z,99135.30
2022-12-23T10:40:19.407Z,99134.13
2022-12-23T10:42:57.438Z,99137.08
2022-12-23T10:46:02.348Z,99132.43
2022-12-23T10:49:23.671Z,99133.27
2022-12-23T10:51:54.411Z,99130.38
2022-12-23T10:54:32.303Z,99134.74
2022-12-23T10:57:01.160Z,99133.02
2022-12-23T10:59:32.736Z,99131.31
2022-12-23T11:02:11.956Z,99134.84
2022-12-23T11:04:46.919Z,99131.78
2022-12-23T11:07:43.284Z,99138.04
2022-12-23T11:10:16.640Z,99136.62
2022-12-23T11:12:50.519Z,99134.27
2022-12-23T11:15:30.196Z,99136.51
2022-12-23T11:18:20.759Z,99140.44
2022-12-23T11:21:06.715Z,99137.86
2022-12-23T11:23:36.503Z,99136.84
2022-12-23T11:26:07.366Z,99136.98
2022-12-23T11:28:39.807Z,99136.27
2022-12-23T11:31:11.515Z,99137.84
2022-12-23T11:33:45.550Z,99140.46
2022-12-23T11:36:12.672Z,99139.85
2022-12-23T11:39:01.477Z,99134.32
2022-12-23T11:41:34.530Z,99136.38
2022-12-23T11:44:09.046Z,99135.95
2022-12-23T11:46:36.251Z,99134.39
2022-12-23T11:49:18.664Z,99129.29
2022-12-23T11:52:09.678Z,99119.18
2022-12-23T11:54:37.646Z,99121.18
2022-12-23T11:57:15.365Z,99121.05
2022-12-23T11:59:54.668Z,99116.73
2022-12-23T12:02:34.734Z,99121.06
2022-12-23T12:05:08.423Z,99125.11
2022-12-23T12:07:36.005Z,99123.51
2022-12-23T12:10:05.476Z,99125.61
2022-12-23T12:12:33.271Z,99128.98
2022-12-23T12:15:00.363Z,99120.98
2022-12-23T12:17:27.262Z,99127.04
2022-12-23T12:20:26.749Z,99128.72
2022-12-23T12:23:00.863Z,99121.71
2022-12-23T12:25:48.506Z,99129.36
2022-12-23T12:28:36.856Z,99134.88
2022-12-23T12:31:32.288Z,99138.16
2022-12-23T12:34:16.518Z,99136.23
2022-12-23T12:36:56.076Z,99145.14
2022-12-23T12:39:48.692Z,99151.40
2022-12-23T12:42:19.254Z,99154.23
2022-12-23T12:44:46.207Z,99154.23
2022-12-23T12:47:52.042Z,99155.55
2022-12-23T12:50:18.267Z,99158.60
2022-12-23T12:52:51.312Z,99163.61
2022-12-23T12:55:27.821Z,99165.94
2022-12-23T12:57:56.654Z,99169.02
2022-12-23T13:00:24.890Z,99170.23
2022-12-23T13:03:17.624Z,99172.42
2022-12-23T13:05:54.072Z,99179.60
2022-12-23T13:08:24.521Z,99183.13
2022-12-23T13:11:16.040Z,99184.58
2022-12-23T13:13:50.081Z,99192.05
2022-12-23T13:16:29.819Z,99194.05
2022-12-23T13:19:13.160Z,99198.01
2022-12-23T13:21:49.888Z,99202.75
2022-12-23T13:24:37.404Z,99205.57
2022-12-23T13:27:14.038Z,99212.33
2022-12-23T13:30:00.831Z,99212.83
2022-12-23T13:32:38.723Z,99211.94
2022-12-23T13:35:09.133Z,99207.75
2022-12-23T13:37:52.851Z,99210.33
2022-12-23T13:40:43.980Z,99213.44
2022-12-23T13:43:24.753Z,99206.39
2022-12-23T13:45:55.630Z,99201.42
2022-12-23T13:49:19.160Z,99205.24
2022-12-23T13:52:09.775Z,99203.58
2022-12-23T13:54:59.202Z,99201.30
2022-12-23T13:57:56.328Z,99199.83
2022-12-23T14:00:32.174Z,99197.69
2022-12-23T14:02:59.905Z,99188.11
2022-12-23T14:05:50.438Z,99197.40
2022-12-23T14:08:18.573Z,99196.02
2022-12-23T14:11:15.409Z,99194.96
2022-12-23T14:13:51.720Z,99194.69
2022-12-23T14:16:32.370Z,99198.29
2022-12-23T14:19:42.222Z,99198.63
2022-12-23T14:22:12.824Z,99203.58
2022-12-23T14:24:59.244Z,99205.30
2022-12-23T14:27:58.665Z,99206.66
2022-12-23T14:30:44.720Z,99189.83
2022-12-23T14:33:23.959Z,99205.27
2022-12-23T14:36:16.860Z,99203.74
2022-12-23T14:39:13.799Z,99206.91
2022-12-23T14:41:51.619Z,99203.59
2022-12-23T14:44:37.789Z,99201.61
2022-12-23T14:47:46.158Z,99200.50
2022-12-23T14:50:33.288Z,99198.09
2022-12-23T14:53:26.259Z,99199.59
2022-12-23T14:56:18.462Z,99201.76
2022-12-23T14:59:03.446Z,99207.50
2022-12-23T15:01:56.897Z,99209.69
2022-12-23T15:04:50.320Z,99215.89
2022-12-23T15:07:33.801Z,99214.05
2022-12-23T15:10:16.688Z,99209.89
2022-12-23T15:12:56.941Z,99216.13
2022-12-23T15:15:29.711Z,99216.88
2022-12-23T15:18:03.347Z,99214.88
2022-12-23T15:20:33.515Z,99214.74
2022-12-23T15:23:10.115Z,99208.64
2022-12-23T15:25:47.129Z,99197.60
2022-12-23T15:28:22.871Z,99202.66
2022-12-23T15:30:57.546Z,99204.72
2022-12-23T15:36:35.934Z,99213.44
2022-12-23T15:39:34.409Z,99212.86
2022-12-23T15:42:04.961Z,99213.58
2022-12-23T15:44:39.881Z,99212.73
2022-12-23T15:47:32.396Z,99210.05
2022-12-23T15:50:04.216Z,99207.00
2022-12-23T15:52:40.862Z,99208.89
2022-12-23T15:55:32.996Z,99204.98
2022-12-23T15:58:06.018Z,99205.59
2022-12-23T16:00:44.934Z,99204.73
2022-12-23T16:03:39.150Z,99207.14
2022-12-23T16:06:17.353Z,99208.43
2022-12-23T16:09:19.342Z,99210.34
2022-12-23T16:11:56.886Z,99213.58
2022-12-23T16:14:32.498Z,99210.72
2022-12-23T16:17:02.952Z,99211.83
2022-12-23T16:19:43.609Z,99210.08
2022-12-23T16:22:30.557Z,99215.12
2022-12-23T16:25:02.861Z,99215.23
2022-12-23T16:27:47.043Z,99216.95
2022-12-23T16:30:43.854Z,99214.02
2022-12-23T16:33:26.648Z,99210.15
2022-12-23T16:36:00.116Z,99206.21
2022-12-23T16:38:31.361Z,99207.48
2022-12-23T16:41:02.351Z,99207.19
2022-12-23T16:43:31.791Z,99206.05
2022-12-23T16:46:02.605Z,99209.14
2022-12-23T16:48:39.258Z,99206.62
2022-12-23T16:51:20.518Z,99210.63
2022-12-23T16:53:56.820Z,99212.70
2022-12-23T16:56:35.166Z,99215.52
2022-12-23T16:59:09.021Z,99215.24
2022-12-23T17:01:45.547Z,99219.09
2022-12-23T17:04:17.995Z,99216.36
2022-12-23T17:06:49.307Z,99218.75
2022-12-23T17:09:24.238Z,99219.59
2022-12-23T17:12:01.400Z,99222.27
2022-12-23T17:14:35.088Z,99224.74
2022-12-23T17:17:16.134Z,99224.48
2022-12-23T17:19:47.262Z,99225.25
2022-12-23T17:22:20.496Z,99230.20
2022-12-23T17:24:50.749Z,99224.34
2022-12-23T17:27:20.453Z,99228.64
2022-12-23T17:29:48.356Z,99224.98
2022-12-23T17:32:18.853Z,99222.85
2022-12-23T17:34:46.815Z,99219.52
2022-12-23T17:37:19.705Z,99223.39
2022-12-23T17:39:49.023Z,99221.20
2022-12-23T17:42:24.908Z,99223.65
2022-12-23T17:44:54.011Z,99220.34
2022-12-23T17:47:22.330Z,99222.53
2022-12-23T17:49:50.287Z,99234.35
2022-12-23T17:52:21.521Z,99232.84
2022-12-23T17:54:52.213Z,99233.09
2022-12-23T17:57:26.608Z,99228.66
2022-12-23T17:59:57.042Z,99222.81
2022-12-23T18:02:35.001Z,99218.31
2022-12-23T18:05:26.138Z,99220.86
2022-12-23T18:07:55.695Z,99214.99
2022-12-23T18:10:27.296Z,99218.27
2022-12-23T18:12:59.432Z,99221.42
2022-12-23T18:15:41.539Z,99220.27
2022-12-23T18:18:15.866Z,99220.35
2022-12-23T18:20:49.939Z,99224.44
2022-12-23T18:23:26.338Z,99228.64
2022-12-23T18:25:56.368Z,99224.18
2022-12-23T18:28:25.821Z,99221.77
2022-12-23T18:30:57.158Z,99209.43
2022-12-23T18:33:28.465Z,99213.30
2022-12-23T18:35:56.934Z,99215.13
2022-12-23T18:38:25.857Z,99213.50
2022-12-23T18:40:56.191Z,99208.35
2022-12-23T18:43:25.487Z,99202.92
2022-12-23T18:45:54.464Z,99207.19
2022-12-23T18:48:23.104Z,99201.71
2022-12-23T18:50:50.833Z,99195.77
2022-12-23T18:53:25.160Z,99194.02
2022-12-23T18:55:55.383Z,99192.32
2022-12-23T18:58:25.773Z,99186.27
2022-12-23T19:00:53.700Z,99178.81
2022-12-23T19:03:25.602Z,99175.91
2022-12-23T19:05:54.852Z,99175.53
2022-12-23T19:08:27.722Z,99170.60
2022-12-23T19:10:56.346Z,99170.90
2022-12-23T19:13:23.942Z,99159.45
2022-12-23T19:15:52.149Z,99153.22
2022-12-23T19:18:21.443Z,99149.08
2022-12-23T19:20:51.740Z,99149.92
2022-12-23T19:23:19.030Z,99147.32
2022-12-23T19:25:54.572Z,99138.53
2022-12-23T19:28:24.188Z,99138.54
2022-12-23T19:30:51.562Z,99135.84
2022-12-23T19:33:18.920Z,99133.42
2022-12-23T19:35:47.037Z,99133.57
2022-12-23T19:38:14.185Z,99137.45
2022-12-23T19:40:41.650Z,99142.18
2022-12-23T19:43:09.694Z,99142.31
2022-12-23T19:45:36.501Z,99132.24
2022-12-23T19:48:04.420Z,99130.94
2022-12-23T19:50:32.703Z,99132.34
2022-12-23T19:52:59.957Z,99130.61
2022-12-23T19:55:27.080Z,99130.09
2022-12-23T19:57:54.237Z,99128.52
2022-12-23T20:00:21.737Z,99121.19
2022-12-23T20:02:52.448Z,99117.39
2022-12-23T20:05:23.982Z,99130.28
2022-12-23T20:07:51.526Z,99127.19
2022-12-23T20:10:19.085Z,99123.52
2022-12-23T20:12:46.861Z,99121.27
2022-12-23T20:15:15.137Z,99121.35
2022-12-23T20:17:43.170Z,99119.31
2022-12-23T20:20:10.574Z,99118.50
2022-12-23T20:22:37.644Z,99119.69
2022-12-23T20:25:05.238Z,99122.77
2022-12-23T20:27:32.438Z,99116.11
2022-12-23T20:29:59.570Z,99118.70
2022-12-23T20:32:27.453Z,99120.88
2022-12-23T20:34:54.604Z,99119.67
2022-12-23T20:37:21.637Z,99119.94
2022-12-23T20:39:48.694Z,99115.02
2022-12-23T20:42:16.215Z,99116.20
2022-12-23T20:44:44.476Z,99116.73
2022-12-23T20:47:12.174Z,99123.59
2022-12-23T20:49:40.276Z,99126.17
2022-12-23T20:52:07.509Z,99120.05
2022-12-23T20:54:35.390Z,99121.60
2022-12-23T20:57:03.501Z,99124.86
2022-12-23T20:59:31.035Z,99123.34
2022-12-23T21:01:59.220Z,99120.29
2022-12-23T21:04:26.856Z,99126.41
2022-12-23T21:06:54.316Z,99120.81
2022-12-23T21:09:21.975Z,99116.29
2022-12-23T21:11:49.346Z,99110.60
2022-12-23T21:14:17.706Z,99114.38
2022-12-23T21:16:45.554Z,99117.23
2022-12-23T21:19:18.673Z,99123.52
2022-12-23T21:21:46.941Z,99118.30
2022-12-23T21:24:16.038Z,99112.90
2022-12-23T21:26:43.769Z,99108.16
2022-12-23T21:29:13.233Z,99102.73
2022-12-23T21:31:41.892Z,99102.46
2022-12-23T21:34:13.809Z,99097.34
2022-12-23T21:36:42.504Z,99095.41
2022-12-23T21:39:14.061Z,99092.69
2022-12-23T21:41:41.920Z,99089.04
2022-12-23T21:44:13.036Z,99086.07
2022-12-23T21:46:40.307Z,99080.89
2022-12-23T21:49:09.873Z,99079.25
2022-12-23T21:51:40.782Z,99077.60
2022-12-23T21:54:11.162Z,99072.66
2022-12-23T21:56:39.508Z,99066.89
2022-12-23T21:59:11.301Z,99063.27
2022-12-23T22:01:39.107Z,99060.35
2022-12-23T22:04:06.682Z,99054.66
2022-12-23T22:06:37.004Z,99055.70
2022-12-23T22:09:06.354Z,99051.52
2022-12-23T22:11:35.728Z,99055.39
2022-12-23T22:14:06.082Z,99048.89
2022-12-23T22:16:34.951Z,99044.09
2022-12-23T22:19:04.942Z,99041.38
2022-12-23T22:21:33.982Z,99038.15
2022-12-23T22:24:01.744Z,99038.70
2022-12-23T22:26:31.363Z,99038.46
2022-12-23T22:29:01.361Z,99030.02
2022-12-23T22:31:34.859Z,99027.36
2022-12-23T22:34:04.275Z,99024.31
2022-12-23T22:36:32.089Z,99022.75
2022-12-23T22:39:00.424Z,99020.69
2022-12-23T22:41:28.999Z,99018.98
2022-12-23T22:43:56.665Z,99011.63
2022-12-23T22:46:24.134Z,99002.16
2022-12-23T22:48:52.746Z,99003.73
2022-12-23T22:51:23.532Z,98999.27
2022-12-23T22:53:50.776Z,98994.28
2022-12-23T22:56:19.594Z,98994.36
2022-12-23T22:58:47.655Z,98999.52
2022-12-23T23:01:21.854Z,98998.27
2022-12-23T23:03:56.420Z,98994.83
2022-12-23T23:06:37.424Z,98983.45
2022-12-23T23:09:06.599Z,98980.05
2022-12-23T23:11:33.896Z,98970.80
2022-12-23T23:14:01.554Z,98966.81
2022-12-23T23:16:28.900Z,98965.33
2022-12-23T23:18:57.271Z,98965.11
2022-12-23T23:21:24.140Z,98966.80
2022-12-23T23:23:51.568Z,98968.31
2022-12-23T23:26:20.137Z,98967.39
2022-12-23T23:28:48.248Z,98969.62
2022-12-23T23:34:02.145Z,98981.63
2022-12-23T23:36:29.275Z,98979.49
2022-12-23T23:38:56.439Z,98978.59
2022-12-23T23:41:24.257Z,98978.63
2022-12-23T23:43:51.702Z,98980.21
2022-12-23T23:46:19.091Z,98980.17
2022-12-23T23:48:47.176Z,98977.48
2022-12-23T23:51:14.145Z,98966.89
2022-12-23T23:53:41.078Z,98963.43
2022-12-23T23:56:08.721Z,98954.84
2022-12-23T23:58:36.903Z,98966.09
